createdAt,value
2019-03-27T00:00:14.391Z,7.08
2019-03-27T00:02:45.145Z,7.17
2019-03-27T00:05:14.303Z,6.40
2019-03-27T00:07:43.439Z,6.90
2019-03-27T00:10:12.583Z,8.00
2019-03-27T00:12:41.718Z,8.30
2019-03-27T00:15:13.194Z,7.70
2019-03-27T00:17:41.721Z,7.22
2019-03-27T00:20:11.017Z,7.33
2019-03-27T00:22:40.179Z,7.30
2019-03-27T00:25:09.333Z,7.25
2019-03-27T00:27:38.475Z,7.47
2019-03-27T00:30:08.265Z,7.92
2019-03-27T00:32:37.406Z,8.13
2019-03-27T00:35:06.826Z,9.13
2019-03-27T00:37:35.964Z,9.03
2019-03-27T00:40:08.207Z,9.48
2019-03-27T00:42:37.354Z,9.25
2019-03-27T00:45:09.718Z,9.43
2019-03-27T00:47:38.869Z,9.23
2019-03-27T00:50:08.370Z,8.73
2019-03-27T00:52:37.506Z,8.83
2019-03-27T00:55:07.190Z,9.30
2019-03-27T00:57:37.401Z,8.10
2019-03-27T01:00:12.528Z,8.68
2019-03-27T01:02:41.658Z,9.10
2019-03-27T01:05:10.805Z,9.23
2019-03-27T01:07:39.944Z,9.53
2019-03-27T01:10:09.099Z,9.00
2019-03-27T01:12:38.237Z,9.85
2019-03-27T01:15:07.392Z,10.58
2019-03-27T01:17:36.526Z,8.18
2019-03-27T01:20:06.456Z,8.90
2019-03-27T01:22:35.958Z,8.60
2019-03-27T01:25:06.238Z,9.05
2019-03-27T01:27:36.416Z,9.10
2019-03-27T01:30:05.711Z,9.20
2019-03-27T01:32:35.822Z,10.60
2019-03-27T01:35:04.976Z,9.55
2019-03-27T01:37:34.117Z,10.28
2019-03-27T01:40:03.271Z,9.93
2019-03-27T01:42:32.486Z,10.58
2019-03-27T01:45:01.647Z,10.05
2019-03-27T01:47:30.842Z,9.98
2019-03-27T01:49:59.986Z,9.83
2019-03-27T01:52:29.136Z,10.45
2019-03-27T01:54:58.278Z,10.53
2019-03-27T01:57:27.426Z,10.82
2019-03-27T01:59:56.576Z,11.70
2019-03-27T02:02:25.727Z,10.90
2019-03-27T02:04:54.870Z,11.45
2019-03-27T02:07:24.028Z,11.28
2019-03-27T02:09:53.162Z,10.70
2019-03-27T02:12:22.325Z,12.55
2019-03-27T02:14:51.450Z,11.38
2019-03-27T02:17:20.615Z,10.90
2019-03-27T02:19:49.752Z,11.90
2019-03-27T02:22:18.975Z,11.35
2019-03-27T02:24:48.117Z,10.55
2019-03-27T02:27:17.270Z,11.22
2019-03-27T02:29:46.421Z,12.50
2019-03-27T02:32:20.406Z,11.70
2019-03-27T02:34:47.370Z,10.60
2019-03-27T02:37:16.550Z,13.55
2019-03-27T02:39:45.742Z,12.00
2019-03-27T02:42:14.894Z,12.00
2019-03-27T02:44:44.050Z,11.93
2019-03-27T02:47:13.255Z,11.25
2019-03-27T02:49:42.400Z,12.07
2019-03-27T02:52:12.519Z,13.48
2019-03-27T02:54:41.656Z,12.58
2019-03-27T02:57:11.784Z,11.97
2019-03-27T02:59:40.931Z,12.88
2019-03-27T03:02:10.088Z,13.32
2019-03-27T03:04:39.299Z,12.75
2019-03-27T03:07:08.461Z,12.30
2019-03-27T03:09:37.607Z,13.78
2019-03-27T03:12:06.769Z,13.00
2019-03-27T03:14:35.973Z,12.93
2019-03-27T03:17:05.147Z,13.80
2019-03-27T03:19:34.279Z,14.70
2019-03-27T03:22:03.439Z,13.72
2019-03-27T03:24:32.581Z,13.30
2019-03-27T03:27:01.806Z,12.58
2019-03-27T03:29:30.949Z,13.43
2019-03-27T03:32:00.196Z,14.50
2019-03-27T03:34:29.355Z,13.60
2019-03-27T03:36:59.748Z,15.05
2019-03-27T03:39:28.896Z,13.35
2019-03-27T03:41:58.112Z,14.15
2019-03-27T03:44:27.330Z,14.15
2019-03-27T03:47:00.185Z,12.78
2019-03-27T03:49:27.425Z,14.93
2019-03-27T03:51:56.581Z,13.55
2019-03-27T03:54:25.710Z,13.53
2019-03-27T03:56:56.098Z,13.32
2019-03-27T03:59:25.235Z,13.60
2019-03-27T04:01:55.068Z,14.05
2019-03-27T04:04:24.215Z,14.00
2019-03-27T04:06:53.367Z,13.32
2019-03-27T04:09:22.505Z,13.93
2019-03-27T04:11:51.670Z,14.30
2019-03-27T04:14:20.881Z,14.73
2019-03-27T04:16:51.003Z,15.43
2019-03-27T04:19:20.141Z,14.68
2019-03-27T04:21:49.308Z,14.40
2019-03-27T04:24:18.451Z,14.23
2019-03-27T04:26:47.603Z,14.18
2019-03-27T04:29:16.740Z,13.53
2019-03-27T04:31:45.901Z,13.40
2019-03-27T04:34:15.042Z,13.03
2019-03-27T04:36:44.200Z,14.15
2019-03-27T04:39:13.334Z,14.73
2019-03-27T04:41:42.495Z,14.68
2019-03-27T04:44:11.642Z,14.83
2019-03-27T04:46:40.787Z,13.95
2019-03-27T04:49:09.923Z,13.78
2019-03-27T04:51:39.079Z,14.43
2019-03-27T04:54:08.217Z,13.58
2019-03-27T04:56:37.370Z,14.63
2019-03-27T04:59:06.852Z,14.50
2019-03-27T05:01:36.003Z,14.20
2019-03-27T05:04:06.214Z,13.90
2019-03-27T05:06:35.369Z,13.60
2019-03-27T05:09:05.245Z,14.10
2019-03-27T05:11:34.399Z,15.28
2019-03-27T05:14:03.533Z,14.05
2019-03-27T05:16:32.691Z,14.18
2019-03-27T05:19:01.829Z,14.33
2019-03-27T05:21:30.986Z,14.47
2019-03-27T05:24:00.299Z,14.58
2019-03-27T05:26:29.451Z,13.25
2019-03-27T05:28:58.596Z,13.48
2019-03-27T05:31:27.758Z,13.55
2019-03-27T05:33:56.906Z,13.85
2019-03-27T05:36:26.048Z,14.55
2019-03-27T05:38:55.197Z,14.73
2019-03-27T05:41:24.342Z,12.73
2019-03-27T05:43:54.467Z,15.08
2019-03-27T05:46:26.482Z,14.70
2019-03-27T05:48:54.449Z,14.00
2019-03-27T05:51:23.594Z,12.68
2019-03-27T05:53:52.750Z,15.08
2019-03-27T05:56:21.899Z,12.93
2019-03-27T05:58:51.049Z,13.55
2019-03-27T06:01:20.197Z,14.00
2019-03-27T06:03:49.351Z,12.93
2019-03-27T06:06:18.519Z,13.80
2019-03-27T06:08:47.672Z,14.80
2019-03-27T06:11:16.806Z,14.43
2019-03-27T06:13:45.982Z,14.38
2019-03-27T06:16:15.119Z,14.95
2019-03-27T06:18:44.286Z,15.35
2019-03-27T06:21:13.418Z,15.23
2019-03-27T06:23:42.578Z,13.43
2019-03-27T06:26:11.714Z,13.58
2019-03-27T06:28:40.873Z,12.93
2019-03-27T06:31:10.008Z,13.75
2019-03-27T06:33:39.294Z,14.05
2019-03-27T06:36:08.435Z,15.10
2019-03-27T06:38:37.593Z,14.85
2019-03-27T06:41:06.736Z,13.50
2019-03-27T06:43:35.886Z,14.38
2019-03-27T06:46:05.026Z,14.33
2019-03-27T06:48:34.179Z,17.57
2019-03-27T06:51:03.472Z,15.88
2019-03-27T06:53:32.621Z,16.50
2019-03-27T06:56:01.764Z,13.83
2019-03-27T06:58:30.983Z,16.12
2019-03-27T07:01:00.118Z,15.00
2019-03-27T07:03:29.273Z,15.10
2019-03-27T07:05:58.410Z,13.93
2019-03-27T07:08:27.570Z,14.73
2019-03-27T07:10:56.718Z,12.82
2019-03-27T07:13:25.937Z,15.15
2019-03-27T07:15:55.080Z,14.00
2019-03-27T07:18:24.243Z,16.20
2019-03-27T07:20:53.444Z,15.85
2019-03-27T07:23:22.611Z,17.10
2019-03-27T07:25:51.762Z,17.32
2019-03-27T07:28:20.925Z,16.05
2019-03-27T07:30:50.066Z,16.52
2019-03-27T07:33:20.303Z,17.10
2019-03-27T07:35:49.443Z,16.77
2019-03-27T07:38:18.597Z,17.60
2019-03-27T07:40:47.753Z,17.90
2019-03-27T07:43:16.910Z,18.60
2019-03-27T07:45:46.058Z,18.50
2019-03-27T07:48:15.220Z,17.10
2019-03-27T07:50:44.371Z,16.42
2019-03-27T07:53:13.521Z,16.77
2019-03-27T07:55:42.666Z,17.57
2019-03-27T07:58:11.832Z,17.57
2019-03-27T08:00:40.970Z,16.45
2019-03-27T08:03:10.134Z,17.95
2019-03-27T08:05:39.278Z,16.15
2019-03-27T08:08:08.433Z,15.78
2019-03-27T08:10:37.586Z,14.18
2019-03-27T08:13:06.751Z,12.70
2019-03-27T08:15:35.970Z,13.28
2019-03-27T08:18:05.126Z,12.78
2019-03-27T08:20:34.271Z,12.15
2019-03-27T08:23:04.339Z,12.80
2019-03-27T08:25:33.908Z,11.00
2019-03-27T08:28:03.185Z,12.25
2019-03-27T08:30:32.321Z,11.28
2019-03-27T08:33:01.486Z,11.40
2019-03-27T08:35:30.633Z,9.75
2019-03-27T08:37:59.790Z,10.58
2019-03-27T08:40:28.938Z,11.60
2019-03-27T08:42:58.094Z,9.38
2019-03-27T08:45:27.234Z,9.03
2019-03-27T08:47:56.402Z,8.88
2019-03-27T08:50:25.543Z,9.58
2019-03-27T08:52:54.718Z,10.18
2019-03-27T08:55:23.868Z,10.30
2019-03-27T08:57:53.019Z,8.78
2019-03-27T09:00:42.194Z,8.53
2019-03-27T09:03:12.371Z,9.73
2019-03-27T09:05:41.582Z,10.10
2019-03-27T09:08:10.719Z,9.08
2019-03-27T09:10:39.874Z,9.13
2019-03-27T09:13:09.014Z,8.50
2019-03-27T09:15:38.182Z,8.98
2019-03-27T09:18:07.335Z,8.53
2019-03-27T09:20:36.491Z,9.15
2019-03-27T09:23:05.691Z,7.70
2019-03-27T09:25:34.857Z,7.87
2019-03-27T09:28:04.073Z,8.33
2019-03-27T09:30:34.186Z,8.15
2019-03-27T09:33:03.323Z,8.53
2019-03-27T09:35:33.004Z,8.75
2019-03-27T09:38:02.251Z,7.97
2019-03-27T09:40:31.401Z,7.72
2019-03-27T09:43:00.551Z,7.75
2019-03-27T09:45:29.706Z,8.73
2019-03-27T09:47:58.847Z,7.90
2019-03-27T09:50:28.002Z,7.10
2019-03-27T09:52:57.143Z,5.37
2019-03-27T09:55:26.299Z,6.05
2019-03-27T09:57:56.439Z,4.62
2019-03-27T10:00:43.826Z,5.67
2019-03-27T10:03:12.972Z,6.45
2019-03-27T10:05:42.124Z,6.33
2019-03-27T10:08:11.262Z,5.90
2019-03-27T10:10:40.418Z,5.60
2019-03-27T10:13:09.557Z,4.75
2019-03-27T10:15:38.706Z,4.30
2019-03-27T10:18:07.839Z,4.20
2019-03-27T10:20:36.986Z,4.30
2019-03-27T10:23:06.132Z,4.00
2019-03-27T10:25:35.302Z,3.62
2019-03-27T10:28:04.451Z,3.02
2019-03-27T10:30:33.666Z,3.22
2019-03-27T10:33:03.730Z,2.60
2019-03-27T10:35:32.890Z,3.00
2019-03-27T10:38:03.021Z,3.25
2019-03-27T10:40:32.159Z,2.58
2019-03-27T10:43:01.303Z,2.80
2019-03-27T10:45:30.456Z,2.27
2019-03-27T10:47:59.586Z,2.42
2019-03-27T10:50:28.735Z,3.05
2019-03-27T10:52:57.870Z,2.90
2019-03-27T10:55:27.029Z,2.95
2019-03-27T10:57:59.035Z,3.27
2019-03-27T11:00:28.628Z,2.90
2019-03-27T11:02:57.830Z,3.05
2019-03-27T11:05:26.978Z,2.90
2019-03-27T11:07:56.114Z,2.85
2019-03-27T11:10:25.364Z,2.62
2019-03-27T11:12:54.499Z,2.45
2019-03-27T11:15:23.650Z,2.90
2019-03-27T11:17:53.188Z,2.85
2019-03-27T11:20:30.907Z,2.72
2019-03-27T11:22:53.337Z,3.15
2019-03-27T11:25:23.003Z,2.90
2019-03-27T11:27:52.191Z,3.40
2019-03-27T11:30:24.606Z,3.10
2019-03-27T11:32:53.750Z,3.30
2019-03-27T11:35:22.897Z,3.30
2019-03-27T11:37:52.046Z,3.33
2019-03-27T11:40:21.190Z,3.30
2019-03-27T11:42:50.325Z,3.12
2019-03-27T11:45:19.479Z,2.98
2019-03-27T11:47:48.619Z,3.12
2019-03-27T11:50:17.766Z,3.65
2019-03-27T11:52:46.913Z,3.58
2019-03-27T11:55:16.062Z,3.60
2019-03-27T11:57:45.202Z,3.40
2019-03-27T12:00:14.369Z,4.15
2019-03-27T12:02:43.517Z,3.90
2019-03-27T12:05:12.739Z,3.90
2019-03-27T12:07:41.889Z,2.92
2019-03-27T12:10:11.111Z,3.22
2019-03-27T12:12:40.253Z,3.20
2019-03-27T12:15:10.431Z,3.70
2019-03-27T12:17:39.589Z,7.40
2019-03-27T12:20:08.744Z,6.20
2019-03-27T12:22:37.962Z,4.35
2019-03-27T12:25:07.098Z,3.22
2019-03-27T12:27:36.255Z,2.77
2019-03-27T12:30:07.130Z,3.00
2019-03-27T12:32:36.292Z,3.20
2019-03-27T12:35:05.703Z,3.30
2019-03-27T12:37:34.860Z,3.08
2019-03-27T12:40:11.340Z,2.77
2019-03-27T12:42:35.666Z,2.77
2019-03-27T12:45:06.745Z,2.50
2019-03-27T12:47:35.970Z,3.30
2019-03-27T12:50:07.063Z,2.77
2019-03-27T12:52:36.266Z,3.40
2019-03-27T12:55:05.686Z,3.00
2019-03-27T12:57:34.899Z,2.85
2019-03-27T13:00:06.179Z,2.77
2019-03-27T13:02:35.327Z,2.85
2019-03-27T13:05:06.622Z,3.02
2019-03-27T13:07:49.088Z,2.55
2019-03-27T13:10:06.696Z,2.47
2019-03-27T13:12:35.908Z,2.90
2019-03-27T13:15:06.674Z,2.92
2019-03-27T13:17:35.837Z,3.00
2019-03-27T13:20:06.679Z,2.87
2019-03-27T13:22:38.302Z,2.62
2019-03-27T13:25:07.312Z,3.08
2019-03-27T13:27:36.466Z,2.90
2019-03-27T13:30:08.552Z,2.85
2019-03-27T13:32:37.841Z,2.70
2019-03-27T13:35:07.154Z,4.80
2019-03-27T13:37:36.309Z,2.95
2019-03-27T13:40:07.482Z,3.92
2019-03-27T13:42:36.648Z,3.62
2019-03-27T13:45:06.499Z,3.27
2019-03-27T13:47:35.718Z,3.17
2019-03-27T13:50:07.671Z,3.22
2019-03-27T13:52:36.818Z,3.90
2019-03-27T13:55:07.600Z,3.80
2019-03-27T13:57:36.841Z,2.90
2019-03-27T14:00:11.348Z,3.15
2019-03-27T14:05:09.010Z,2.90
2019-03-27T14:07:38.168Z,3.22
2019-03-27T14:10:07.371Z,3.10
2019-03-27T14:12:36.518Z,3.12
2019-03-27T14:15:10.983Z,3.20
2019-03-27T14:17:40.134Z,3.10
2019-03-27T14:20:09.348Z,2.90
2019-03-27T14:22:38.494Z,3.02
2019-03-27T14:25:08.268Z,3.42
2019-03-27T14:27:37.474Z,3.65
2019-03-27T14:30:08.670Z,2.92
2019-03-27T14:32:37.826Z,2.75
2019-03-27T14:35:07.113Z,2.33
2019-03-27T14:37:37.215Z,2.37
2019-03-27T14:40:07.544Z,2.83
2019-03-27T14:42:36.770Z,3.25
2019-03-27T14:45:08.147Z,3.20
2019-03-27T14:47:37.312Z,3.40
2019-03-27T14:50:09.614Z,3.62
2019-03-27T14:52:38.832Z,3.08
2019-03-27T14:55:07.974Z,2.80
2019-03-27T14:57:37.667Z,2.90
2019-03-27T15:00:09.049Z,3.37
2019-03-27T15:02:38.270Z,2.70
2019-03-27T15:05:07.806Z,2.80
2019-03-27T15:07:36.950Z,2.70
2019-03-27T15:10:08.628Z,3.50
2019-03-27T15:12:37.781Z,3.00
2019-03-27T15:15:09.255Z,2.85
2019-03-27T15:17:39.482Z,3.17
2019-03-27T15:20:08.691Z,3.30
2019-03-27T15:22:37.840Z,3.08
2019-03-27T15:25:08.229Z,3.10
2019-03-27T15:27:37.399Z,3.45
2019-03-27T15:30:12.995Z,3.30
2019-03-27T15:32:42.609Z,3.42
2019-03-27T15:35:12.815Z,3.35
2019-03-27T15:37:42.007Z,3.20
2019-03-27T15:40:11.209Z,3.47
2019-03-27T15:42:40.433Z,3.15
2019-03-27T15:45:10.571Z,3.45
2019-03-27T15:47:39.719Z,3.35
2019-03-27T15:50:09.847Z,3.80
2019-03-27T15:52:38.989Z,3.25
2019-03-27T15:55:08.139Z,3.50
2019-03-27T15:57:37.276Z,3.65
2019-03-27T16:00:08.067Z,3.33
2019-03-27T16:02:37.208Z,3.20
2019-03-27T16:05:06.447Z,3.15
2019-03-27T16:07:35.660Z,3.20
2019-03-27T16:10:07.883Z,2.90
2019-03-27T16:12:38.094Z,2.67
2019-03-27T16:15:07.611Z,2.55
2019-03-27T16:17:36.758Z,2.67
2019-03-27T16:20:07.341Z,2.65
2019-03-27T16:22:49.496Z,3.05
2019-03-27T16:25:07.782Z,2.70
2019-03-27T16:27:36.917Z,2.85
2019-03-27T16:30:06.547Z,3.25
2019-03-27T16:32:35.695Z,3.10
2019-03-27T16:35:08.878Z,3.05
2019-03-27T16:37:38.032Z,2.80
2019-03-27T16:40:07.204Z,3.22
2019-03-27T16:42:36.346Z,3.20
2019-03-27T16:45:06.530Z,3.40
2019-03-27T16:47:35.687Z,3.40
2019-03-27T16:50:06.838Z,3.98
2019-03-27T16:52:35.977Z,4.10
2019-03-27T16:55:06.825Z,3.40
2019-03-27T16:57:35.968Z,4.08
2019-03-27T17:00:07.126Z,3.90
2019-03-27T17:02:36.343Z,3.77
2019-03-27T17:05:08.727Z,4.00
2019-03-27T17:07:37.868Z,4.00
2019-03-27T17:10:07.029Z,3.50
2019-03-27T17:12:36.495Z,3.50
2019-03-27T17:15:07.190Z,3.37
2019-03-27T17:17:36.410Z,3.50
2019-03-27T17:20:08.474Z,3.72
2019-03-27T17:22:37.605Z,3.15
2019-03-27T17:25:09.487Z,3.52
2019-03-27T17:27:38.618Z,3.42
2019-03-27T17:30:10.194Z,3.02
2019-03-27T17:32:39.327Z,2.83
2019-03-27T17:35:08.523Z,2.70
2019-03-27T17:37:37.738Z,2.87
2019-03-27T17:40:07.057Z,3.05
2019-03-27T17:42:36.203Z,2.77
2019-03-27T17:45:06.876Z,2.80
2019-03-27T17:47:36.033Z,3.05
2019-03-27T17:50:05.531Z,2.80
2019-03-27T17:52:37.891Z,2.90
2019-03-27T17:55:06.857Z,3.08
2019-03-27T17:57:36.010Z,2.60
2019-03-27T18:00:08.398Z,2.52
2019-03-27T18:02:37.571Z,2.75
2019-03-27T18:05:07.181Z,2.70
2019-03-27T18:07:36.348Z,2.80
2019-03-27T18:10:06.426Z,2.65
2019-03-27T18:12:37.611Z,2.25
2019-03-27T18:15:07.023Z,2.77
2019-03-27T18:17:36.330Z,2.37
2019-03-27T18:20:05.496Z,2.58
2019-03-27T18:22:34.726Z,2.35
2019-03-27T18:25:05.299Z,2.58
2019-03-27T18:27:34.454Z,2.22
2019-03-27T18:30:06.333Z,2.55
2019-03-27T18:32:35.659Z,2.42
2019-03-27T18:35:05.830Z,2.50
2019-03-27T18:37:34.983Z,2.30
2019-03-27T18:40:05.461Z,2.20
2019-03-27T18:42:34.686Z,2.12
2019-03-27T18:45:06.018Z,2.50
2019-03-27T18:47:35.203Z,2.70
2019-03-27T18:50:06.083Z,2.52
2019-03-27T18:52:35.277Z,2.98
2019-03-27T18:55:05.622Z,2.30
2019-03-27T18:57:34.773Z,2.10
2019-03-27T19:00:08.932Z,2.30
2019-03-27T19:02:38.322Z,2.50
2019-03-27T19:05:07.625Z,2.47
2019-03-27T19:07:36.786Z,2.20
2019-03-27T19:10:06.099Z,2.50
2019-03-27T19:12:35.328Z,2.30
2019-03-27T19:15:07.373Z,1.92
2019-03-27T19:17:36.539Z,2.40
2019-03-27T19:20:07.301Z,2.60
2019-03-27T19:22:36.466Z,3.33
2019-03-27T19:25:07.056Z,2.62
2019-03-27T19:27:36.283Z,2.50
2019-03-27T19:30:06.383Z,47.35
2019-03-27T19:32:35.609Z,9.20
2019-03-27T19:35:05.890Z,4.70
2019-03-27T19:37:35.034Z,3.40
2019-03-27T19:40:04.930Z,3.62
2019-03-27T19:42:34.161Z,4.45
2019-03-27T19:45:04.211Z,4.22
2019-03-27T19:47:33.614Z,3.80
2019-03-27T19:50:05.583Z,4.12
2019-03-27T19:52:34.787Z,3.65
2019-03-27T19:55:04.742Z,3.85
2019-03-27T19:57:33.908Z,3.83
2019-03-27T20:00:04.998Z,4.15
2019-03-27T20:02:34.216Z,4.12
2019-03-27T20:05:03.926Z,4.47
2019-03-27T20:07:36.084Z,4.92
2019-03-27T20:10:06.242Z,4.05
2019-03-27T20:12:35.646Z,4.37
2019-03-27T20:15:12.512Z,4.70
2019-03-27T20:17:38.968Z,4.83
2019-03-27T20:20:08.347Z,4.60
2019-03-27T20:22:37.500Z,4.92
2019-03-27T20:25:08.931Z,4.83
2019-03-27T20:27:38.085Z,4.85
2019-03-27T20:30:11.642Z,4.97
2019-03-27T20:32:40.802Z,4.80
2019-03-27T20:35:10.019Z,5.25
2019-03-27T20:37:39.338Z,5.78
2019-03-27T20:40:08.550Z,5.28
2019-03-27T20:42:38.154Z,4.95
2019-03-27T20:45:08.030Z,5.37
2019-03-27T20:47:37.180Z,5.00
2019-03-27T20:50:07.990Z,4.85
2019-03-27T20:52:37.185Z,5.03
2019-03-27T20:55:06.439Z,4.67
2019-03-27T20:57:35.574Z,4.95
2019-03-27T21:00:07.430Z,4.72
2019-03-27T21:02:36.951Z,5.08
2019-03-27T21:05:07.074Z,5.00
2019-03-27T21:07:36.266Z,5.15
2019-03-27T21:10:08.414Z,5.08
2019-03-27T21:12:37.553Z,5.22
2019-03-27T21:15:07.405Z,4.55
2019-03-27T21:17:36.551Z,4.78
2019-03-27T21:20:11.251Z,5.12
2019-03-27T21:22:41.468Z,4.97
2019-03-27T21:25:11.772Z,5.47
2019-03-27T21:27:40.937Z,4.60
2019-03-27T21:30:10.747Z,4.60
2019-03-27T21:32:40.047Z,4.75
2019-03-27T21:35:15.747Z,5.00
2019-03-27T21:37:45.010Z,5.55
2019-03-27T21:40:14.193Z,5.20
2019-03-27T21:42:43.392Z,4.90
2019-03-27T21:45:12.577Z,4.97
2019-03-27T21:47:41.762Z,5.17
2019-03-27T21:50:10.962Z,5.17
2019-03-27T21:52:40.108Z,4.80
2019-03-27T21:55:21.903Z,5.72
2019-03-27T21:57:40.165Z,6.05
2019-03-27T22:00:10.379Z,5.80
2019-03-27T22:02:39.609Z,5.45
2019-03-27T22:05:08.771Z,5.67
2019-03-27T22:08:02.932Z,6.05
2019-03-27T22:10:32.262Z,5.47
2019-03-27T22:13:12.040Z,5.83
2019-03-27T22:15:44.184Z,5.45
2019-03-27T22:18:13.382Z,5.15
2019-03-27T22:20:42.554Z,6.17
2019-03-27T22:23:11.811Z,5.97
2019-03-27T22:25:41.067Z,5.95
2019-03-27T22:28:10.334Z,6.47
2019-03-27T22:30:39.599Z,6.67
2019-03-27T22:33:08.848Z,7.00
2019-03-27T22:35:38.055Z,6.37
2019-03-27T22:38:07.286Z,5.58
2019-03-27T22:40:36.430Z,5.40
2019-03-27T22:43:05.572Z,5.78
2019-03-27T22:45:34.728Z,5.62
2019-03-27T22:48:04.027Z,5.00
2019-03-27T22:50:33.170Z,5.55
2019-03-27T22:53:02.523Z,5.87
2019-03-27T22:55:31.728Z,5.40
2019-03-27T22:58:00.878Z,5.12
2019-03-27T23:00:40.490Z,5.17
2019-03-27T23:03:18.199Z,5.37
2019-03-27T23:05:41.051Z,4.85
2019-03-27T23:08:10.210Z,5.40
2019-03-27T23:10:39.350Z,5.50
2019-03-27T23:13:10.111Z,6.10
2019-03-27T23:15:39.306Z,5.30
2019-03-27T23:18:08.456Z,5.75
2019-03-27T23:20:37.595Z,5.10
2019-03-27T23:23:06.816Z,5.85
2019-03-27T23:25:35.973Z,6.10
2019-03-27T23:28:05.107Z,4.92
2019-03-27T23:30:34.262Z,5.40
2019-03-27T23:33:03.500Z,5.12
2019-03-27T23:35:32.779Z,5.37
2019-03-27T23:38:01.911Z,5.20
2019-03-27T23:40:31.183Z,4.92
2019-03-27T23:43:01.292Z,5.62
2019-03-27T23:45:30.483Z,5.25
2019-03-27T23:47:59.689Z,5.28
2019-03-27T23:50:28.854Z,6.25
2019-03-27T23:52:57.997Z,5.15
2019-03-27T23:55:27.159Z,5.42
2019-03-27T23:57:56.301Z,5.47
